createdAt,value
2018-09-10T00:00:52.070Z,19.80
2018-09-10T00:03:20.958Z,19.80
2018-09-10T00:05:49.855Z,20.10
2018-09-10T00:08:18.749Z,20.00
2018-09-10T00:10:47.589Z,20.00
2018-09-10T00:13:16.431Z,19.80
2018-09-10T00:15:45.283Z,19.90
2018-09-10T00:18:14.152Z,20.50
2018-09-10T00:20:42.986Z,20.60
2018-09-10T00:23:11.848Z,20.00
2018-09-10T00:25:40.708Z,20.50
2018-09-10T00:28:09.568Z,20.50
2018-09-10T00:30:38.452Z,20.50
2018-09-10T00:33:07.328Z,20.40
2018-09-10T00:35:36.200Z,20.40
2018-09-10T00:38:05.045Z,20.40
2018-09-10T00:40:33.873Z,20.40
2018-09-10T00:43:02.748Z,20.40
2018-09-10T00:45:31.830Z,20.40
2018-09-10T00:48:00.755Z,20.50
2018-09-10T00:50:29.559Z,21.70
2018-09-10T00:52:58.421Z,21.30
2018-09-10T00:55:27.393Z,22.00
2018-09-10T00:57:56.324Z,22.50
2018-09-10T01:00:25.122Z,23.70
2018-09-10T01:02:54.039Z,22.80
2018-09-10T01:05:22.917Z,22.60
2018-09-10T01:07:51.775Z,22.60
2018-09-10T01:10:20.677Z,22.50
2018-09-10T01:12:49.615Z,22.50
2018-09-10T01:15:18.527Z,22.70
2018-09-10T01:17:47.380Z,23.00
2018-09-10T01:20:16.260Z,23.00
2018-09-10T01:22:45.113Z,22.60
2018-09-10T01:25:13.984Z,22.90
2018-09-10T01:27:42.856Z,22.90
2018-09-10T01:30:11.711Z,22.70
2018-09-10T01:32:40.561Z,23.70
2018-09-10T01:35:09.407Z,23.00
2018-09-10T01:37:38.270Z,22.90
2018-09-10T01:40:07.197Z,23.10
2018-09-10T01:42:36.014Z,23.00
2018-09-10T01:45:04.933Z,23.30
2018-09-10T01:47:33.814Z,23.50
2018-09-10T01:50:02.632Z,23.70
2018-09-10T01:52:31.488Z,23.30
2018-09-10T01:55:00.392Z,23.00
2018-09-10T01:57:29.202Z,22.60
2018-09-10T01:59:58.026Z,23.70
2018-09-10T02:02:26.936Z,22.20
2018-09-10T02:04:56.048Z,21.90
2018-09-10T02:07:24.921Z,21.60
2018-09-10T02:09:53.794Z,21.50
2018-09-10T02:12:25.013Z,21.50
2018-09-10T02:14:55.272Z,21.60
2018-09-10T02:17:24.653Z,21.70
2018-09-10T02:19:53.856Z,21.40
2018-09-10T02:22:23.011Z,22.30
2018-09-10T02:24:52.056Z,22.00
2018-09-10T02:27:20.980Z,22.70
2018-09-10T02:29:49.880Z,23.40
2018-09-10T02:32:18.682Z,21.90
2018-09-10T02:34:47.539Z,21.90
2018-09-10T02:37:16.412Z,22.00
2018-09-10T02:39:45.247Z,22.30
2018-09-10T02:42:14.102Z,21.60
2018-09-10T02:44:42.997Z,21.90
2018-09-10T02:47:11.820Z,21.60
2018-09-10T02:49:40.643Z,21.00
2018-09-10T02:52:09.503Z,20.40
2018-09-10T02:54:38.496Z,20.90
2018-09-10T02:57:07.388Z,22.20
2018-09-10T02:59:36.189Z,20.10
2018-09-10T03:02:05.044Z,21.60
2018-09-10T03:04:33.987Z,22.30
2018-09-10T03:07:02.969Z,22.00
2018-09-10T03:09:31.844Z,22.40
2018-09-10T03:12:00.741Z,22.50
2018-09-10T03:14:29.751Z,22.70
2018-09-10T03:16:58.590Z,22.60
2018-09-10T03:19:27.464Z,22.80
2018-09-10T03:21:56.332Z,22.90
2018-09-10T03:24:25.311Z,23.00
2018-09-10T03:26:54.156Z,23.00
2018-09-10T03:29:23.036Z,22.80
2018-09-10T03:31:51.867Z,23.00
2018-09-10T03:34:20.678Z,23.30
2018-09-10T03:36:49.515Z,23.40
2018-09-10T03:39:18.371Z,23.30
2018-09-10T03:41:47.241Z,23.30
2018-09-10T03:44:16.125Z,23.80
2018-09-10T03:46:44.999Z,23.20
2018-09-10T03:49:13.850Z,23.50
2018-09-10T03:51:42.686Z,23.70
2018-09-10T03:54:11.559Z,23.90
2018-09-10T03:56:40.435Z,23.90
2018-09-10T03:59:09.281Z,23.80
2018-09-10T04:01:38.111Z,23.70
2018-09-10T04:04:07.025Z,23.20
2018-09-10T04:06:35.868Z,23.00
2018-09-10T04:09:06.241Z,23.10
2018-09-10T04:11:35.194Z,23.20
2018-09-10T04:14:04.064Z,22.70
2018-09-10T04:16:32.925Z,23.00
2018-09-10T04:19:01.739Z,24.10
2018-09-10T04:21:30.599Z,22.90
2018-09-10T04:23:59.512Z,22.90
2018-09-10T04:26:28.359Z,23.10
2018-09-10T04:28:57.218Z,22.80
2018-09-10T04:31:26.135Z,22.60
2018-09-10T04:33:55.028Z,22.80
2018-09-10T04:36:23.878Z,22.80
2018-09-10T04:38:52.735Z,22.80
2018-09-10T04:41:21.575Z,23.60
2018-09-10T04:43:50.421Z,23.50
2018-09-10T04:46:19.323Z,23.20
2018-09-10T04:48:48.207Z,23.20
2018-09-10T04:51:17.072Z,23.20
2018-09-10T04:53:45.981Z,23.10
2018-09-10T04:56:14.856Z,23.20
2018-09-10T04:58:43.671Z,23.00
2018-09-10T05:01:12.582Z,22.90
2018-09-10T05:03:41.473Z,22.50
2018-09-10T05:06:11.249Z,22.50
2018-09-10T05:08:40.068Z,21.80
2018-09-10T05:11:08.965Z,21.30
2018-09-10T05:13:37.839Z,20.60
2018-09-10T05:16:07.442Z,20.60
2018-09-10T05:18:36.296Z,20.60
2018-09-10T05:21:05.204Z,20.80
2018-09-10T05:23:34.041Z,20.70
2018-09-10T05:26:02.888Z,20.80
2018-09-10T05:28:31.794Z,20.90
2018-09-10T05:31:00.652Z,20.80
2018-09-10T05:33:29.570Z,20.90
2018-09-10T05:35:58.473Z,20.80
2018-09-10T05:38:29.246Z,20.80
2018-09-10T05:40:58.164Z,20.80
2018-09-10T05:43:27.041Z,20.90
2018-09-10T05:45:55.896Z,20.80
2018-09-10T05:48:24.759Z,20.90
2018-09-10T05:50:53.704Z,20.90
2018-09-10T05:53:22.615Z,20.80
2018-09-10T05:55:51.696Z,20.80
2018-09-10T05:58:20.572Z,21.90
2018-09-10T06:00:49.447Z,20.90
2018-09-10T06:03:18.295Z,20.40
2018-09-10T06:05:47.186Z,20.30
2018-09-10T06:08:16.040Z,20.90
2018-09-10T06:10:44.858Z,20.80
2018-09-10T06:13:13.719Z,20.80
2018-09-10T06:15:42.582Z,20.90
2018-09-10T06:18:11.463Z,20.70
2018-09-10T06:20:40.323Z,20.20
2018-09-10T06:23:09.252Z,20.40
2018-09-10T06:25:38.122Z,20.70
2018-09-10T06:28:07.021Z,20.70
2018-09-10T06:30:35.919Z,20.80
2018-09-10T06:33:04.803Z,21.00
2018-09-10T06:35:33.697Z,21.00
2018-09-10T06:38:02.633Z,19.40
2018-09-10T06:40:31.446Z,18.60
2018-09-10T06:43:00.453Z,18.80
2018-09-10T06:45:29.347Z,17.10
2018-09-10T06:47:58.220Z,16.40
2018-09-10T06:50:27.061Z,16.00
2018-09-10T06:52:55.916Z,15.60
2018-09-10T06:55:24.706Z,15.60
2018-09-10T06:57:53.592Z,15.30
2018-09-10T07:00:22.985Z,15.30
2018-09-10T07:02:52.004Z,15.00
2018-09-10T07:05:20.888Z,14.70
2018-09-10T07:07:49.748Z,14.40
2018-09-10T07:10:18.670Z,14.30
2018-09-10T07:12:47.602Z,14.30
2018-09-10T07:15:16.422Z,13.60
2018-09-10T07:17:45.305Z,13.80
2018-09-10T07:20:14.181Z,13.80
2018-09-10T07:22:43.019Z,13.90
2018-09-10T07:25:11.852Z,13.30
2018-09-10T07:27:40.716Z,12.50
2018-09-10T07:30:09.639Z,11.90
2018-09-10T07:32:38.504Z,11.30
2018-09-10T07:35:07.445Z,10.60
2018-09-10T07:37:36.333Z,10.60
2018-09-10T07:40:05.262Z,10.70
2018-09-10T07:42:34.108Z,10.60
2018-09-10T07:45:02.993Z,9.80
2018-09-10T07:47:31.933Z,9.70
2018-09-10T07:50:00.836Z,8.50
2018-09-10T07:52:29.681Z,8.20
2018-09-10T07:54:58.581Z,7.90
2018-09-10T07:57:27.484Z,7.50
2018-09-10T07:59:56.319Z,7.60
2018-09-10T08:02:25.182Z,7.10
2018-09-10T08:04:53.993Z,7.30
2018-09-10T08:07:22.852Z,7.80
2018-09-10T08:09:51.861Z,7.30
2018-09-10T08:12:20.715Z,7.30
2018-09-10T08:14:49.724Z,6.30
2018-09-10T08:17:18.580Z,6.40
2018-09-10T08:19:47.492Z,6.50
2018-09-10T08:22:16.362Z,6.60
2018-09-10T08:24:45.235Z,6.60
2018-09-10T08:27:14.272Z,6.40
2018-09-10T08:29:43.127Z,6.00
2018-09-10T08:32:12.372Z,6.00
2018-09-10T08:34:41.260Z,5.00
2018-09-10T08:37:10.192Z,5.10
2018-09-10T08:39:39.048Z,5.00
2018-09-10T08:42:08.141Z,5.70
2018-09-10T08:44:36.934Z,5.60
2018-09-10T08:47:05.824Z,5.20
2018-09-10T08:49:34.716Z,4.20
2018-09-10T08:52:03.604Z,3.70
2018-09-10T08:54:32.761Z,3.50
2018-09-10T08:57:01.465Z,3.60
2018-09-10T08:59:30.364Z,3.50
2018-09-10T09:01:59.318Z,3.10
2018-09-10T09:04:28.089Z,1.70
2018-09-10T09:06:56.960Z,1.00
2018-09-10T09:09:25.893Z,1.00
2018-09-10T09:11:54.730Z,1.00
2018-09-10T09:14:23.576Z,1.00
2018-09-10T09:16:52.472Z,1.00
2018-09-10T09:19:21.373Z,1.00
2018-09-10T09:21:50.211Z,1.00
2018-09-10T09:24:19.164Z,1.00
2018-09-10T09:26:47.962Z,1.00
2018-09-10T09:29:16.856Z,1.00
2018-09-10T09:31:45.685Z,1.00
2018-09-10T09:34:14.613Z,1.00
2018-09-10T09:36:48.680Z,1.00
2018-09-10T09:39:22.832Z,1.00
2018-09-10T09:41:56.985Z,1.00
2018-09-10T09:44:31.185Z,1.00
2018-09-10T09:47:00.057Z,1.00
2018-09-10T09:49:28.983Z,1.00
2018-09-10T09:51:57.864Z,1.00
2018-09-10T09:54:26.758Z,1.00
2018-09-10T09:56:55.637Z,1.00
2018-09-10T09:59:24.511Z,1.00
2018-09-10T10:01:57.576Z,1.00
2018-09-10T10:04:26.750Z,1.00
2018-09-10T10:06:55.539Z,1.00
2018-09-10T10:09:24.412Z,1.00
2018-09-10T10:11:53.237Z,1.00
2018-09-10T10:14:22.127Z,1.00
2018-09-10T10:16:51.027Z,1.00
2018-09-10T10:19:19.898Z,1.00
2018-09-10T10:21:48.718Z,1.00
2018-09-10T10:24:17.631Z,1.00
2018-09-10T10:26:46.544Z,1.00
2018-09-10T10:29:15.365Z,1.00
2018-09-10T10:31:44.346Z,1.00
2018-09-10T10:34:13.236Z,1.00
2018-09-10T10:36:42.333Z,1.00
2018-09-10T10:39:11.190Z,1.00
2018-09-10T10:41:40.090Z,1.00
2018-09-10T10:44:08.968Z,1.00
2018-09-10T10:46:37.858Z,1.00
2018-09-10T10:49:06.778Z,1.00
2018-09-10T10:51:35.681Z,1.00
2018-09-10T10:54:04.555Z,1.00
2018-09-10T10:56:33.402Z,1.00
2018-09-10T10:59:02.277Z,1.00
2018-09-10T11:01:31.148Z,1.00
2018-09-10T11:03:59.990Z,1.00
2018-09-10T11:06:28.855Z,1.00
2018-09-10T11:08:57.749Z,1.00
2018-09-10T11:11:26.611Z,1.00
2018-09-10T11:13:55.493Z,1.00
2018-09-10T11:16:24.386Z,1.00
2018-09-10T11:18:53.236Z,1.00
2018-09-10T11:21:22.159Z,1.00
2018-09-10T11:23:50.991Z,1.00
2018-09-10T11:26:19.826Z,1.00
2018-09-10T11:28:48.688Z,1.00
2018-09-10T11:31:17.577Z,1.00
2018-09-10T11:33:46.555Z,1.00
2018-09-10T11:36:15.429Z,1.00
2018-09-10T11:38:44.282Z,1.00
2018-09-10T11:41:13.193Z,1.00
2018-09-10T11:43:42.099Z,1.00
2018-09-10T11:46:10.953Z,1.00
2018-09-10T11:48:39.841Z,1.00
2018-09-10T11:51:08.743Z,1.00
2018-09-10T11:53:37.684Z,1.00
2018-09-10T11:56:06.553Z,1.00
2018-09-10T11:58:35.444Z,1.00
2018-09-10T12:01:04.296Z,1.00
2018-09-10T12:03:33.143Z,1.00
2018-09-10T12:06:01.962Z,1.00
2018-09-10T12:08:30.825Z,1.00
2018-09-10T12:11:01.425Z,1.00
2018-09-10T12:13:30.722Z,1.00
2018-09-10T12:15:59.625Z,1.00
2018-09-10T12:18:28.507Z,1.00
2018-09-10T12:20:57.473Z,1.00
2018-09-10T12:23:26.852Z,1.00
2018-09-10T12:25:55.759Z,1.00
2018-09-10T12:28:24.595Z,1.00
2018-09-10T12:30:53.500Z,1.00
2018-09-10T12:33:22.356Z,1.00
2018-09-10T12:35:51.259Z,1.00
2018-09-10T12:38:20.103Z,1.00
2018-09-10T12:40:48.933Z,1.00
2018-09-10T12:43:17.772Z,1.00
2018-09-10T12:45:46.607Z,1.00
2018-09-10T12:48:15.468Z,1.00
2018-09-10T12:50:44.276Z,1.00
2018-09-10T12:53:13.107Z,1.00
2018-09-10T12:55:41.917Z,1.00
2018-09-10T12:58:10.743Z,1.00
2018-09-10T13:00:39.589Z,1.00
2018-09-10T13:03:08.658Z,1.00
2018-09-10T13:05:37.554Z,1.00
2018-09-10T13:08:06.407Z,1.00
2018-09-10T13:10:35.322Z,1.00
2018-09-10T13:13:04.099Z,1.00
2018-09-10T13:15:32.927Z,1.00
2018-09-10T13:18:01.904Z,1.00
2018-09-10T13:20:30.718Z,1.00
2018-09-10T13:22:59.509Z,1.00
2018-09-10T13:25:28.319Z,1.00
2018-09-10T13:27:57.135Z,1.00
2018-09-10T13:30:25.954Z,1.00
2018-09-10T13:32:54.755Z,1.00
2018-09-10T13:35:23.683Z,1.00
2018-09-10T13:37:52.503Z,1.00
2018-09-10T13:40:21.307Z,1.00
2018-09-10T13:42:50.266Z,1.00
2018-09-10T13:45:19.291Z,1.00
2018-09-10T13:47:48.226Z,1.00
2018-09-10T13:50:17.169Z,1.00
2018-09-10T13:52:45.968Z,1.00
2018-09-10T13:55:14.787Z,1.00
2018-09-10T13:57:43.619Z,1.00
2018-09-10T14:00:12.451Z,1.00
2018-09-10T14:02:41.283Z,1.00
2018-09-10T14:05:10.111Z,1.00
2018-09-10T14:07:38.916Z,1.00
2018-09-10T14:10:07.763Z,1.00
2018-09-10T14:12:36.583Z,1.00
2018-09-10T14:15:05.473Z,1.00
2018-09-10T14:17:34.267Z,1.00
2018-09-10T14:20:03.083Z,1.00
2018-09-10T14:22:31.906Z,1.00
2018-09-10T14:25:00.730Z,1.00
2018-09-10T14:27:29.620Z,1.00
2018-09-10T14:29:58.422Z,1.00
2018-09-10T14:32:27.234Z,1.00
2018-09-10T14:34:56.053Z,1.00
2018-09-10T14:37:24.876Z,1.00
2018-09-10T14:39:53.694Z,1.00
2018-09-10T14:42:22.530Z,1.00
2018-09-10T14:44:51.378Z,1.00
2018-09-10T14:47:20.239Z,1.00
2018-09-10T14:49:49.074Z,1.00
2018-09-10T14:52:17.919Z,1.00
2018-09-10T14:54:46.779Z,1.00
2018-09-10T14:57:15.578Z,1.00
2018-09-10T14:59:44.387Z,1.00
2018-09-10T15:02:13.201Z,1.00
2018-09-10T15:04:42.039Z,1.00
2018-09-10T15:07:10.871Z,1.00
2018-09-10T15:09:39.691Z,1.00
2018-09-10T15:12:08.610Z,1.00
2018-09-10T15:14:37.406Z,1.00
2018-09-10T15:17:06.239Z,1.00
2018-09-10T15:19:35.084Z,1.00
2018-09-10T15:22:04.308Z,1.00
2018-09-10T15:24:33.143Z,1.00
2018-09-10T15:27:01.973Z,1.00
2018-09-10T15:29:30.787Z,1.00
2018-09-10T15:31:59.635Z,1.00
2018-09-10T15:34:28.470Z,1.00
2018-09-10T15:36:57.310Z,1.00
2018-09-10T15:39:26.128Z,1.00
2018-09-10T15:41:54.995Z,1.00
2018-09-10T15:44:23.822Z,1.00
2018-09-10T15:46:52.712Z,1.00
2018-09-10T15:49:21.589Z,1.00
2018-09-10T15:51:50.399Z,1.00
2018-09-10T15:54:19.239Z,1.00
2018-09-10T15:56:48.080Z,1.00
2018-09-10T15:59:16.918Z,1.00
2018-09-10T16:01:45.715Z,1.00
2018-09-10T16:04:14.872Z,1.00
2018-09-10T16:06:43.698Z,1.00
2018-09-10T16:09:12.529Z,1.00
2018-09-10T16:11:41.399Z,1.00
2018-09-10T16:14:10.212Z,1.00
2018-09-10T16:16:39.106Z,1.20
2018-09-10T16:19:08.058Z,1.30
2018-09-10T16:21:36.895Z,1.50
2018-09-10T16:24:05.943Z,1.50
2018-09-10T16:26:34.862Z,1.50
2018-09-10T16:29:03.713Z,1.50
2018-09-10T16:31:32.549Z,1.30
2018-09-10T16:34:01.419Z,1.50
2018-09-10T16:36:30.201Z,1.80
2018-09-10T16:38:59.092Z,1.80
2018-09-10T16:41:27.920Z,1.80
2018-09-10T16:43:57.744Z,1.80
2018-09-10T16:46:26.571Z,1.80
2018-09-10T16:48:55.399Z,1.80
2018-09-10T16:51:24.344Z,1.80
2018-09-10T16:53:53.179Z,1.90
2018-09-10T16:56:21.978Z,2.30
2018-09-10T16:58:50.986Z,2.30
2018-09-10T17:01:19.815Z,3.00
2018-09-10T17:03:48.628Z,3.10
2018-09-10T17:06:17.483Z,3.40
2018-09-10T17:08:46.325Z,3.30
2018-09-10T17:11:15.147Z,3.30
2018-09-10T17:13:43.946Z,3.90
2018-09-10T17:16:12.764Z,4.00
2018-09-10T17:18:41.586Z,4.30
2018-09-10T17:21:10.402Z,4.80
2018-09-10T17:23:39.231Z,5.00
2018-09-10T17:26:08.027Z,5.10
2018-09-10T17:28:36.895Z,5.30
2018-09-10T17:31:06.019Z,5.30
2018-09-10T17:33:34.907Z,5.90
2018-09-10T17:36:03.703Z,5.70
2018-09-10T17:38:32.535Z,6.00
2018-09-10T17:41:01.379Z,6.00
2018-09-10T17:43:30.230Z,6.30
2018-09-10T17:45:59.764Z,6.40
2018-09-10T17:48:28.592Z,6.30
2018-09-10T17:50:57.440Z,6.30
2018-09-10T17:53:26.254Z,7.30
2018-09-10T17:55:55.090Z,6.70
2018-09-10T17:58:23.951Z,6.60
2018-09-10T18:00:52.802Z,6.70
2018-09-10T18:03:21.590Z,6.70
2018-09-10T18:05:50.447Z,6.70
2018-09-10T18:08:19.304Z,6.60
2018-09-10T18:10:48.187Z,6.60
2018-09-10T18:13:17.005Z,6.50
2018-09-10T18:15:45.838Z,6.50
2018-09-10T18:18:14.658Z,6.40
2018-09-10T18:20:43.495Z,6.30
2018-09-10T18:23:12.291Z,6.30
2018-09-10T18:25:41.117Z,6.30
2018-09-10T18:28:12.124Z,6.30
2018-09-10T18:30:41.155Z,6.70
2018-09-10T18:33:09.979Z,6.30
2018-09-10T18:35:38.835Z,6.30
2018-09-10T18:38:07.639Z,6.30
2018-09-10T18:40:36.499Z,6.30
2018-09-10T18:43:05.319Z,6.30
2018-09-10T18:45:34.146Z,6.30
2018-09-10T18:48:02.970Z,6.30
2018-09-10T18:50:31.838Z,6.30
2018-09-10T18:53:01.023Z,6.30
2018-09-10T18:55:29.904Z,6.30
2018-09-10T18:57:59.003Z,6.20
2018-09-10T19:00:30.176Z,6.70
2018-09-10T19:02:59.011Z,6.80
2018-09-10T19:05:27.826Z,6.40
2018-09-10T19:07:56.659Z,6.60
2018-09-10T19:10:25.494Z,6.70
2018-09-10T19:12:54.311Z,6.40
2018-09-10T19:15:23.135Z,6.40
2018-09-10T19:17:51.948Z,6.70
2018-09-10T19:20:20.773Z,7.00
2018-09-10T19:22:49.586Z,6.80
2018-09-10T19:25:18.394Z,7.00
2018-09-10T19:27:47.218Z,6.80
2018-09-10T19:30:16.083Z,7.00
2018-09-10T19:32:44.851Z,7.00
2018-09-10T19:35:13.687Z,7.00
2018-09-10T19:37:42.519Z,7.10
2018-09-10T19:40:11.420Z,7.10
2018-09-10T19:42:40.235Z,7.30
2018-09-10T19:45:09.076Z,7.40
2018-09-10T19:47:37.916Z,7.40
2018-09-10T19:50:06.735Z,7.60
2018-09-10T19:52:36.667Z,7.50
2018-09-10T19:55:05.674Z,7.50
2018-09-10T19:57:34.498Z,7.80
2018-09-10T20:00:04.235Z,7.90
2018-09-10T20:02:33.099Z,8.20
2018-09-10T20:05:02.118Z,8.30
2018-09-10T20:07:30.991Z,8.50
2018-09-10T20:09:59.810Z,8.70
2018-09-10T20:12:28.628Z,8.70
2018-09-10T20:14:57.459Z,8.00
2018-09-10T20:17:26.281Z,8.70
2018-09-10T20:19:55.108Z,8.90
2018-09-10T20:22:23.997Z,8.90
2018-09-10T20:24:52.849Z,9.00
2018-09-10T20:27:21.746Z,9.20
2018-09-10T20:29:50.649Z,9.20
2018-09-10T20:32:19.507Z,9.40
2018-09-10T20:34:48.340Z,9.60
2018-09-10T20:37:17.203Z,9.60
2018-09-10T20:39:46.129Z,9.70
2018-09-10T20:42:15.016Z,9.90
2018-09-10T20:44:43.891Z,10.00
2018-09-10T20:47:12.749Z,10.10
2018-09-10T20:49:41.589Z,10.30
2018-09-10T20:52:10.536Z,10.60
2018-09-10T20:54:39.389Z,10.60
2018-09-10T20:57:08.264Z,10.50
2018-09-10T20:59:37.105Z,10.70
2018-09-10T21:02:05.946Z,10.90
2018-09-10T21:04:34.767Z,11.00
2018-09-10T21:07:03.637Z,11.10
2018-09-10T21:09:32.537Z,11.30
2018-09-10T21:12:01.385Z,11.40
2018-09-10T21:14:30.228Z,11.50
2018-09-10T21:16:59.047Z,11.60
2018-09-10T21:19:27.853Z,11.00
2018-09-10T21:21:56.724Z,11.80
2018-09-10T21:24:25.609Z,11.70
2018-09-10T21:26:54.525Z,11.60
2018-09-10T21:29:23.334Z,11.70
2018-09-10T21:31:52.188Z,11.50
2018-09-10T21:34:21.019Z,11.50
2018-09-10T21:36:49.826Z,11.40
2018-09-10T21:39:18.692Z,11.70
2018-09-10T21:41:47.581Z,11.70
2018-09-10T21:44:16.439Z,11.50
2018-09-10T21:46:45.263Z,12.50
2018-09-10T21:49:14.126Z,11.90
2018-09-10T21:51:42.954Z,12.00
2018-09-10T21:54:11.759Z,12.00
2018-09-10T21:56:40.635Z,12.00
2018-09-10T21:59:09.531Z,12.10
2018-09-10T22:01:38.367Z,12.80
2018-09-10T22:04:07.240Z,12.30
2018-09-10T22:06:36.148Z,12.50
2018-09-10T22:09:06.634Z,12.80
2018-09-10T22:11:39.801Z,12.90
2018-09-10T22:14:09.435Z,13.20
2018-09-10T22:16:38.336Z,13.20
2018-09-10T22:19:07.233Z,13.30
2018-09-10T22:21:36.156Z,13.40
2018-09-10T22:24:05.066Z,13.90
2018-09-10T22:26:33.969Z,13.90
2018-09-10T22:29:02.811Z,14.30
2018-09-10T22:31:31.717Z,14.30
2018-09-10T22:34:00.538Z,14.20
2018-09-10T22:36:29.428Z,14.20
2018-09-10T22:38:58.336Z,14.30
2018-09-10T22:41:27.229Z,14.30
2018-09-10T22:43:56.091Z,14.30
2018-09-10T22:46:24.940Z,14.20
2018-09-10T22:48:53.755Z,14.20
2018-09-10T22:51:22.641Z,14.20
2018-09-10T22:53:51.483Z,14.20
2018-09-10T22:56:20.368Z,14.20
2018-09-10T22:58:49.252Z,14.20
2018-09-10T23:01:18.145Z,14.10
2018-09-10T23:03:47.024Z,14.60
2018-09-10T23:06:15.897Z,14.40
2018-09-10T23:08:44.845Z,14.20
2018-09-10T23:11:13.679Z,14.20
2018-09-10T23:13:42.588Z,14.20
2018-09-10T23:16:11.418Z,14.20
2018-09-10T23:18:40.309Z,14.20
2018-09-10T23:21:09.219Z,14.40
2018-09-10T23:23:38.062Z,15.00
2018-09-10T23:26:07.051Z,15.10
2018-09-10T23:28:37.023Z,15.50
2018-09-10T23:31:07.698Z,15.40
2018-09-10T23:33:36.596Z,15.80
2018-09-10T23:36:05.508Z,15.70
2018-09-10T23:38:34.364Z,15.80
2018-09-10T23:41:03.219Z,15.90
2018-09-10T23:43:32.079Z,15.70
2018-09-10T23:46:00.930Z,16.00
2018-09-10T23:48:29.797Z,16.00
2018-09-10T23:50:58.625Z,15.90
2018-09-10T23:53:27.496Z,16.20
2018-09-10T23:55:56.434Z,16.30
2018-09-10T23:58:25.262Z,16.40
